createdAt,value
2023-02-22T00:00:22.968Z,11.35
2023-02-22T00:03:17.905Z,11.33
2023-02-22T00:05:47.398Z,11.27
2023-02-22T00:08:15.016Z,11.22
2023-02-22T00:10:41.819Z,11.20
2023-02-22T00:13:09.909Z,11.21
2023-02-22T00:15:36.936Z,11.22
2023-02-22T00:18:05.023Z,11.21
2023-02-22T00:20:31.824Z,11.17
2023-02-22T00:23:01.466Z,11.14
2023-02-22T00:25:28.267Z,11.10
2023-02-22T00:27:56.276Z,11.09
2023-02-22T00:30:26.811Z,11.06
2023-02-22T00:32:55.957Z,11.02
2023-02-22T00:35:24.824Z,11.00
2023-02-22T00:37:52.815Z,10.95
2023-02-22T00:40:21.652Z,10.95
2023-02-22T00:42:48.787Z,10.93
2023-02-22T00:45:22.308Z,10.94
2023-02-22T00:47:49.467Z,10.86
2023-02-22T00:50:19.171Z,10.84
2023-02-22T00:52:46.311Z,10.84
2023-02-22T00:55:19.037Z,10.85
2023-02-22T00:57:46.186Z,10.83
2023-02-22T01:00:18.724Z,10.73
2023-02-22T01:02:50.803Z,10.77
2023-02-22T01:05:21.096Z,10.81
2023-02-22T01:07:48.857Z,10.76
2023-02-22T01:10:16.549Z,10.76
2023-02-22T01:12:43.713Z,10.73
2023-02-22T01:15:11.134Z,10.74
2023-02-22T01:17:39.213Z,10.69
2023-02-22T01:20:12.895Z,10.61
2023-02-22T01:22:47.607Z,10.68
2023-02-22T01:25:19.641Z,10.70
2023-02-22T01:27:46.825Z,10.66
2023-02-22T01:30:14.351Z,10.62
2023-02-22T01:32:42.103Z,10.64
2023-02-22T01:35:11.804Z,10.62
2023-02-22T01:37:39.217Z,10.58
2023-02-22T01:40:07.348Z,10.59
2023-02-22T01:42:34.465Z,10.56
2023-02-22T01:45:35.976Z,10.51
2023-02-22T01:48:10.408Z,10.52
2023-02-22T01:50:39.998Z,10.48
2023-02-22T01:53:07.614Z,10.44
2023-02-22T01:55:34.367Z,10.47
2023-02-22T01:58:02.058Z,10.40
2023-02-22T02:00:28.880Z,10.44
2023-02-22T02:03:00.219Z,10.45
2023-02-22T02:05:27.741Z,10.44
2023-02-22T02:07:54.773Z,10.43
2023-02-22T02:10:21.987Z,10.42
2023-02-22T02:12:49.893Z,10.41
2023-02-22T02:15:25.735Z,10.39
2023-02-22T02:17:53.915Z,10.38
2023-02-22T02:20:35.213Z,10.33
2023-02-22T02:23:36.823Z,10.36
2023-02-22T02:26:14.399Z,10.31
2023-02-22T02:29:12.627Z,10.32
2023-02-22T02:32:16.835Z,10.30
2023-02-22T02:34:51.018Z,10.31
2023-02-22T02:37:26.967Z,10.30
2023-02-22T02:39:54.058Z,10.23
2023-02-22T02:42:22.839Z,10.27
2023-02-22T02:44:53.663Z,10.25
2023-02-22T02:47:26.479Z,10.27
2023-02-22T02:50:10.325Z,10.28
2023-02-22T02:52:37.405Z,10.27
2023-02-22T02:55:04.853Z,10.23
2023-02-22T02:57:32.531Z,10.21
2023-02-22T02:59:59.623Z,10.18
2023-02-22T03:02:47.425Z,10.15
2023-02-22T03:05:37.350Z,10.20
2023-02-22T03:08:16.193Z,10.19
2023-02-22T03:11:07.038Z,10.15
2023-02-22T03:13:56.738Z,10.19
2023-02-22T03:16:32.900Z,10.18
2023-02-22T03:19:08.334Z,10.17
2023-02-22T03:21:55.012Z,10.14
2023-02-22T03:24:43.164Z,10.14
2023-02-22T03:27:13.081Z,10.09
2023-02-22T03:29:41.112Z,10.11
2023-02-22T03:32:10.785Z,10.13
2023-02-22T03:34:43.032Z,10.13
2023-02-22T03:37:18.126Z,10.11
2023-02-22T03:39:44.923Z,10.14
2023-02-22T03:42:29.617Z,10.08
2023-02-22T03:44:58.197Z,10.08
2023-02-22T03:47:46.172Z,10.06
2023-02-22T03:50:15.857Z,10.10
2023-02-22T03:52:47.445Z,10.02
2023-02-22T03:55:17.703Z,10.10
2023-02-22T03:57:56.956Z,10.06
2023-02-22T04:00:26.012Z,10.09
2023-02-22T04:02:53.138Z,10.03
2023-02-22T04:08:06.419Z,10.04
2023-02-22T04:10:33.683Z,9.98
2023-02-22T04:13:01.036Z,10.00
2023-02-22T04:15:28.004Z,10.04
2023-02-22T04:17:55.234Z,10.01
2023-02-22T04:20:25.541Z,9.98
2023-02-22T04:22:53.707Z,9.98
2023-02-22T04:25:21.259Z,9.96
2023-02-22T04:27:48.640Z,9.95
2023-02-22T04:30:17.345Z,9.91
2023-02-22T04:32:44.415Z,9.95
2023-02-22T04:35:11.272Z,9.98
2023-02-22T04:37:38.358Z,9.90
2023-02-22T04:40:08.534Z,9.91
2023-02-22T04:42:36.276Z,9.91
2023-02-22T04:45:08.013Z,9.94
2023-02-22T04:47:35.922Z,9.94
2023-02-22T04:50:03.811Z,9.90
2023-02-22T04:52:30.984Z,9.88
2023-02-22T04:54:57.722Z,9.91
2023-02-22T04:57:24.798Z,9.81
2023-02-22T04:59:51.550Z,9.86
2023-02-22T05:02:18.967Z,9.81
2023-02-22T05:04:45.789Z,9.83
2023-02-22T05:07:12.882Z,9.83
2023-02-22T05:09:39.649Z,9.84
2023-02-22T05:12:07.055Z,9.86
2023-02-22T05:14:33.829Z,9.78
2023-02-22T05:17:01.256Z,9.81
2023-02-22T05:19:28.148Z,9.80
2023-02-22T05:21:56.561Z,9.78
2023-02-22T05:24:23.362Z,9.74
2023-02-22T05:26:51.373Z,9.74
2023-02-22T05:29:18.196Z,9.74
2023-02-22T05:31:45.430Z,9.68
2023-02-22T05:34:12.446Z,9.69
2023-02-22T05:36:39.467Z,9.70
2023-02-22T05:39:06.339Z,9.69
2023-02-22T05:41:33.397Z,9.65
2023-02-22T05:44:00.207Z,9.68
2023-02-22T05:46:27.426Z,9.59
2023-02-22T05:48:54.204Z,9.61
2023-02-22T05:51:21.314Z,9.61
2023-02-22T05:53:48.254Z,9.61
2023-02-22T05:56:21.776Z,9.56
2023-02-22T05:58:48.546Z,9.59
2023-02-22T06:01:15.939Z,9.59
2023-02-22T06:03:42.770Z,9.51
2023-02-22T06:06:10.398Z,9.54
2023-02-22T06:08:37.271Z,9.55
2023-02-22T06:11:04.484Z,9.49
2023-02-22T06:13:31.305Z,9.51
2023-02-22T06:15:59.088Z,9.50
2023-02-22T06:18:26.748Z,9.49
2023-02-22T06:20:53.866Z,9.47
2023-02-22T06:23:20.648Z,9.46
2023-02-22T06:25:47.991Z,9.45
2023-02-22T06:28:15.748Z,9.45
2023-02-22T06:30:43.113Z,9.43
2023-02-22T06:33:10.608Z,9.42
2023-02-22T06:35:37.673Z,9.42
2023-02-22T06:38:05.548Z,9.43
2023-02-22T06:40:32.565Z,9.45
2023-02-22T06:42:59.959Z,9.43
2023-02-22T06:45:27.248Z,9.41
2023-02-22T06:47:54.485Z,9.38
2023-02-22T06:50:22.853Z,9.43
2023-02-22T06:52:49.677Z,9.40
2023-02-22T06:55:21.291Z,9.41
2023-02-22T06:57:48.250Z,9.43
2023-02-22T07:00:17.293Z,9.49
2023-02-22T07:02:44.071Z,9.48
2023-02-22T07:05:12.825Z,9.49
2023-02-22T07:07:39.834Z,9.49
2023-02-22T07:10:08.204Z,9.51
2023-02-22T07:12:35.538Z,9.53
2023-02-22T07:15:02.705Z,9.54
2023-02-22T07:17:29.558Z,9.58
2023-02-22T07:19:56.737Z,9.59
2023-02-22T07:22:23.583Z,9.61
2023-02-22T07:24:50.724Z,9.64
2023-02-22T07:27:17.994Z,9.68
2023-02-22T07:29:45.043Z,9.75
2023-02-22T07:32:11.831Z,9.75
2023-02-22T07:34:39.073Z,9.81
2023-02-22T07:37:05.832Z,9.84
2023-02-22T07:39:34.487Z,9.89
2023-02-22T07:42:01.246Z,9.95
2023-02-22T07:44:28.375Z,9.97
2023-02-22T07:46:55.128Z,9.98
2023-02-22T07:49:22.164Z,10.01
2023-02-22T07:51:48.960Z,10.03
2023-02-22T07:54:16.049Z,10.09
2023-02-22T07:56:49.442Z,10.14
2023-02-22T07:59:16.631Z,10.16
2023-02-22T08:01:43.469Z,10.24
2023-02-22T08:04:10.599Z,10.27
2023-02-22T08:06:37.379Z,10.33
2023-02-22T08:09:04.456Z,10.35
2023-02-22T08:11:31.237Z,10.40
2023-02-22T08:13:58.317Z,10.50
2023-02-22T08:16:25.081Z,10.55
2023-02-22T08:18:52.191Z,10.59
2023-02-22T08:21:19.235Z,10.62
2023-02-22T08:23:47.713Z,10.69
2023-02-22T08:26:15.737Z,10.74
2023-02-22T08:28:43.249Z,10.79
2023-02-22T08:31:10.666Z,10.80
2023-02-22T08:33:37.892Z,10.83
2023-02-22T08:36:05.025Z,10.85
2023-02-22T08:38:34.006Z,10.92
2023-02-22T08:41:00.817Z,10.99
2023-02-22T08:43:28.554Z,11.01
2023-02-22T08:45:57.398Z,11.03
2023-02-22T08:48:24.843Z,11.08
2023-02-22T08:50:51.890Z,11.15
2023-02-22T08:53:19.099Z,11.19
2023-02-22T08:55:45.957Z,11.22
2023-02-22T08:58:13.315Z,11.26
2023-02-22T09:00:40.604Z,11.29
2023-02-22T09:03:13.402Z,11.33
2023-02-22T09:05:41.268Z,11.38
2023-02-22T09:08:08.682Z,11.44
2023-02-22T09:10:35.859Z,11.50
2023-02-22T09:13:04.096Z,11.57
2023-02-22T09:15:31.263Z,11.60
2023-02-22T09:17:58.472Z,11.63
2023-02-22T09:20:25.309Z,11.67
2023-02-22T09:22:52.756Z,11.70
2023-02-22T09:25:22.971Z,11.74
2023-02-22T09:27:51.230Z,11.79
2023-02-22T09:30:26.323Z,11.83
2023-02-22T09:32:59.308Z,11.89
2023-02-22T09:35:29.008Z,11.91
2023-02-22T09:37:56.816Z,11.93
2023-02-22T09:40:29.832Z,11.99
2023-02-22T09:43:07.271Z,12.03
2023-02-22T09:45:38.138Z,12.07
2023-02-22T09:48:20.920Z,12.12
2023-02-22T09:50:48.999Z,12.16
2023-02-22T09:53:29.339Z,12.19
2023-02-22T09:56:06.690Z,12.25
2023-02-22T09:58:36.817Z,12.30
2023-02-22T10:01:15.889Z,12.36
2023-02-22T10:04:01.173Z,12.42
2023-02-22T10:06:28.351Z,12.47
2023-02-22T10:08:57.644Z,12.53
2023-02-22T10:11:56.211Z,12.58
2023-02-22T10:14:55.512Z,12.66
2023-02-22T10:17:29.707Z,12.72
2023-02-22T10:20:22.611Z,12.78
2023-02-22T10:23:01.648Z,12.85
2023-02-22T10:25:28.868Z,12.91
2023-02-22T10:28:00.777Z,12.98
2023-02-22T10:30:34.337Z,13.05
2023-02-22T10:33:22.059Z,13.09
2023-02-22T10:35:49.350Z,13.10
2023-02-22T10:38:26.726Z,13.16
2023-02-22T10:41:04.295Z,13.17
2023-02-22T10:43:31.199Z,13.20
2023-02-22T10:46:01.420Z,13.19
2023-02-22T10:48:28.743Z,13.27
2023-02-22T10:51:02.110Z,13.35
2023-02-22T10:53:29.886Z,13.43
2023-02-22T10:56:19.213Z,13.42
2023-02-22T10:58:53.620Z,13.44
2023-02-22T11:01:33.001Z,13.54
2023-02-22T11:04:10.027Z,13.63
2023-02-22T11:06:37.243Z,13.63
2023-02-22T11:09:11.848Z,13.63
2023-02-22T11:11:41.281Z,13.63
2023-02-22T11:14:10.804Z,13.71
2023-02-22T11:16:40.829Z,13.80
2023-02-22T11:19:25.253Z,13.79
2023-02-22T11:21:55.006Z,13.85
2023-02-22T11:24:30.339Z,13.90
2023-02-22T11:27:01.601Z,13.91
2023-02-22T11:29:33.639Z,13.91
2023-02-22T11:32:02.136Z,13.98
2023-02-22T11:34:39.682Z,14.04
2023-02-22T11:37:26.014Z,14.14
2023-02-22T11:40:19.885Z,14.21
2023-02-22T11:42:46.972Z,14.25
2023-02-22T11:45:23.720Z,14.25
2023-02-22T11:47:52.616Z,14.20
2023-02-22T11:50:29.084Z,14.35
2023-02-22T11:53:09.842Z,14.44
2023-02-22T11:55:45.040Z,14.40
2023-02-22T11:58:27.255Z,14.45
2023-02-22T12:00:58.828Z,14.41
2023-02-22T12:03:54.258Z,14.44
2023-02-22T12:06:27.131Z,14.44
2023-02-22T12:09:06.176Z,14.49
2023-02-22T12:11:57.277Z,14.56
2023-02-22T12:14:52.655Z,14.60
2023-02-22T12:17:26.423Z,14.58
2023-02-22T12:19:56.416Z,14.61
2023-02-22T12:22:26.353Z,14.64
2023-02-22T12:25:09.098Z,14.67
2023-02-22T12:27:42.673Z,14.67
2023-02-22T12:30:29.366Z,14.68
2023-02-22T12:33:01.198Z,14.69
2023-02-22T12:35:30.279Z,14.68
2023-02-22T12:38:04.693Z,14.69
2023-02-22T12:40:57.118Z,14.69
2023-02-22T12:43:33.201Z,14.70
2023-02-22T12:46:04.724Z,14.74
2023-02-22T12:48:35.275Z,14.75
2023-02-22T12:51:24.627Z,14.82
2023-02-22T12:54:42.155Z,14.76
2023-02-22T12:57:20.156Z,14.80
2023-02-22T12:59:49.536Z,14.82
2023-02-22T13:02:54.478Z,14.84
2023-02-22T13:05:21.540Z,14.93
2023-02-22T13:08:08.774Z,14.89
2023-02-22T13:10:58.910Z,14.89
2023-02-22T13:13:54.944Z,14.91
2023-02-22T13:16:25.344Z,14.92
2023-02-22T13:19:01.545Z,14.91
2023-02-22T13:21:34.168Z,14.94
2023-02-22T13:24:12.634Z,14.98
2023-02-22T13:26:50.729Z,15.00
2023-02-22T13:29:23.264Z,15.01
2023-02-22T13:32:22.068Z,15.03
2023-02-22T13:35:04.880Z,15.02
2023-02-22T13:37:35.777Z,15.06
2023-02-22T13:40:28.496Z,15.07
2023-02-22T13:43:07.480Z,15.09
2023-02-22T13:46:03.876Z,15.09
2023-02-22T13:48:49.054Z,15.11
2023-02-22T13:51:34.408Z,15.11
2023-02-22T13:54:14.274Z,15.11
2023-02-22T13:56:45.378Z,15.02
2023-02-22T13:59:30.366Z,14.97
2023-02-22T14:01:58.103Z,15.05
2023-02-22T14:04:27.946Z,15.02
2023-02-22T14:06:55.972Z,15.03
2023-02-22T14:09:48.324Z,15.09
2023-02-22T14:12:30.657Z,15.08
2023-02-22T14:15:29.255Z,15.12
2023-02-22T14:17:56.965Z,15.12
2023-02-22T14:20:36.106Z,15.05
2023-02-22T14:23:40.279Z,15.03
2023-02-22T14:26:19.414Z,15.06
2023-02-22T14:28:59.725Z,15.05
2023-02-22T14:31:37.048Z,14.99
2023-02-22T14:34:13.949Z,14.99
2023-02-22T14:36:51.382Z,14.98
2023-02-22T14:39:23.596Z,15.00
2023-02-22T14:41:56.449Z,15.06
2023-02-22T14:44:26.444Z,15.01
2023-02-22T14:46:54.942Z,14.99
2023-02-22T14:49:22.985Z,15.01
2023-02-22T14:51:56.380Z,15.04
2023-02-22T14:54:30.632Z,15.05
2023-02-22T14:57:14.737Z,15.06
2023-02-22T14:59:55.089Z,15.05
2023-02-22T15:02:25.978Z,15.07
2023-02-22T15:04:54.126Z,15.07
2023-02-22T15:07:27.542Z,15.07
2023-02-22T15:10:20.672Z,14.99
2023-02-22T15:13:09.684Z,14.94
2023-02-22T15:15:46.946Z,14.94
2023-02-22T15:18:35.409Z,14.95
2023-02-22T15:21:16.316Z,14.92
2023-02-22T15:23:44.646Z,14.94
2023-02-22T15:26:35.130Z,14.89
2023-02-22T15:29:02.328Z,14.90
2023-02-22T15:31:34.317Z,14.87
2023-02-22T15:34:18.998Z,14.84
2023-02-22T15:36:46.613Z,14.82
2023-02-22T15:39:22.900Z,14.82
2023-02-22T15:41:51.130Z,14.78
2023-02-22T15:44:23.559Z,14.74
2023-02-22T15:46:52.258Z,14.71
2023-02-22T15:49:20.489Z,14.69
2023-02-22T15:51:49.259Z,14.65
2023-02-22T15:54:26.465Z,14.60
2023-02-22T15:56:57.295Z,14.57
2023-02-22T15:59:29.643Z,14.55
2023-02-22T16:01:57.638Z,14.51
2023-02-22T16:04:27.051Z,14.44
2023-02-22T16:07:01.900Z,14.43
2023-02-22T16:09:30.468Z,14.39
2023-02-22T16:12:10.817Z,14.34
2023-02-22T16:14:40.408Z,14.28
2023-02-22T16:17:30.768Z,14.27
2023-02-22T16:19:59.118Z,14.20
2023-02-22T16:22:36.485Z,14.20
2023-02-22T16:25:16.565Z,14.15
2023-02-22T16:27:55.813Z,14.07
2023-02-22T16:30:36.616Z,14.03
2023-02-22T16:33:05.605Z,14.01
2023-02-22T16:35:35.646Z,13.99
2023-02-22T16:38:04.452Z,13.95
2023-02-22T16:40:34.596Z,13.92
2023-02-22T16:43:07.061Z,13.91
2023-02-22T16:45:34.380Z,13.89
2023-02-22T16:48:04.910Z,13.88
2023-02-22T16:50:31.779Z,13.80
2023-02-22T16:52:58.878Z,13.76
2023-02-22T16:55:25.710Z,13.71
2023-02-22T16:57:55.239Z,13.67
2023-02-22T17:00:31.293Z,13.64
2023-02-22T17:02:59.555Z,13.63
2023-02-22T17:05:26.387Z,13.62
2023-02-22T17:07:53.503Z,13.60
2023-02-22T17:10:20.322Z,13.52
2023-02-22T17:12:48.004Z,13.54
2023-02-22T17:15:35.099Z,13.45
2023-02-22T17:18:05.986Z,13.43
2023-02-22T17:20:32.793Z,13.41
2023-02-22T17:23:01.497Z,13.39
2023-02-22T17:25:34.624Z,13.38
2023-02-22T17:28:01.699Z,13.32
2023-02-22T17:30:28.545Z,13.26
2023-02-22T17:33:03.590Z,13.28
2023-02-22T17:35:36.900Z,13.25
2023-02-22T17:38:08.392Z,13.23
2023-02-22T17:40:36.576Z,13.22
2023-02-22T17:43:04.117Z,13.18
2023-02-22T17:45:31.124Z,13.18
2023-02-22T17:48:01.067Z,13.13
2023-02-22T17:50:27.927Z,13.11
2023-02-22T17:52:55.087Z,13.08
2023-02-22T17:55:22.397Z,13.08
2023-02-22T17:57:56.892Z,13.06
2023-02-22T18:00:33.100Z,13.02
2023-02-22T18:03:05.578Z,12.98
2023-02-22T18:05:35.318Z,12.91
2023-02-22T18:08:02.441Z,12.89
2023-02-22T18:10:29.262Z,12.90
2023-02-22T18:12:56.855Z,12.83
2023-02-22T18:15:23.676Z,12.86
2023-02-22T18:17:50.747Z,12.85
2023-02-22T18:20:31.008Z,12.83
2023-02-22T18:22:58.900Z,12.81
2023-02-22T18:25:26.003Z,12.80
2023-02-22T18:27:54.990Z,12.79
2023-02-22T18:30:21.928Z,12.74
2023-02-22T18:32:49.067Z,12.70
2023-02-22T18:35:15.905Z,12.70
2023-02-22T18:37:44.478Z,12.70
2023-02-22T18:40:11.277Z,12.68
2023-02-22T18:42:40.238Z,12.65
2023-02-22T18:45:07.690Z,12.62
2023-02-22T18:47:39.565Z,12.61
2023-02-22T18:50:07.204Z,12.56
2023-02-22T18:52:35.663Z,12.56
2023-02-22T18:55:02.493Z,12.53
2023-02-22T18:57:29.617Z,12.53
2023-02-22T18:59:56.874Z,12.43
2023-02-22T19:02:25.546Z,12.44
2023-02-22T19:04:52.590Z,12.46
2023-02-22T19:07:20.690Z,12.43
2023-02-22T19:09:51.044Z,12.46
2023-02-22T19:12:19.003Z,12.41
2023-02-22T19:14:48.558Z,12.39
2023-02-22T19:17:16.167Z,12.40
2023-02-22T19:19:43.809Z,12.30
2023-02-22T19:22:15.097Z,12.27
2023-02-22T19:24:42.945Z,12.29
2023-02-22T19:27:11.024Z,12.27
2023-02-22T19:29:40.670Z,12.28
2023-02-22T19:32:08.904Z,12.27
2023-02-22T19:34:37.044Z,12.23
2023-02-22T19:37:05.469Z,12.18
2023-02-22T19:39:33.040Z,12.19
2023-02-22T19:42:00.524Z,12.18
2023-02-22T19:44:27.516Z,12.18
2023-02-22T19:46:57.561Z,12.21
2023-02-22T19:51:58.189Z,12.15
2023-02-22T19:54:24.976Z,12.10
2023-02-22T19:56:52.139Z,12.13
2023-02-22T19:59:22.798Z,12.11
2023-02-22T20:01:52.614Z,12.04
2023-02-22T20:04:21.415Z,12.06
2023-02-22T20:06:50.643Z,12.05
2023-02-22T20:09:23.365Z,11.97
2023-02-22T20:11:51.916Z,12.03
2023-02-22T20:14:21.147Z,11.95
2023-02-22T20:16:48.353Z,11.97
2023-02-22T20:19:15.162Z,11.96
2023-02-22T20:21:42.868Z,11.97
2023-02-22T20:24:12.088Z,11.92
2023-02-22T20:26:40.001Z,11.87
2023-02-22T20:29:07.231Z,11.86
2023-02-22T20:31:34.451Z,11.88
2023-02-22T20:34:01.833Z,11.83
2023-02-22T20:36:29.541Z,11.85
2023-02-22T20:38:58.037Z,11.84
2023-02-22T20:41:27.099Z,11.82
2023-02-22T20:43:55.218Z,11.80
2023-02-22T20:46:23.722Z,11.80
2023-02-22T20:48:55.289Z,11.72
2023-02-22T20:51:22.595Z,11.69
2023-02-22T20:53:50.084Z,11.72
2023-02-22T20:56:21.780Z,11.67
2023-02-22T20:58:48.692Z,11.61
2023-02-22T21:01:17.219Z,11.57
2023-02-22T21:03:44.183Z,11.63
2023-02-22T21:06:15.289Z,11.63
2023-02-22T21:08:43.535Z,11.63
2023-02-22T21:11:14.592Z,11.56
2023-02-22T21:13:41.610Z,11.57
2023-02-22T21:16:10.389Z,11.53
2023-02-22T21:18:37.353Z,11.48
2023-02-22T21:21:12.647Z,11.48
2023-02-22T21:23:40.028Z,11.52
2023-02-22T21:26:07.850Z,11.50
2023-02-22T21:28:50.441Z,11.44
2023-02-22T21:31:23.461Z,11.41
2023-02-22T21:33:51.841Z,11.41
2023-02-22T21:36:19.043Z,11.44
2023-02-22T21:38:53.384Z,11.36
2023-02-22T21:41:21.362Z,11.37
2023-02-22T21:43:51.761Z,11.35
2023-02-22T21:46:19.197Z,11.33
2023-02-22T21:48:48.810Z,11.31
2023-02-22T21:51:17.808Z,11.24
2023-02-22T21:53:48.648Z,11.22
2023-02-22T21:56:18.857Z,11.23
2023-02-22T21:58:46.467Z,11.17
2023-02-22T22:01:17.598Z,11.18
2023-02-22T22:03:45.303Z,11.05
2023-02-22T22:06:13.691Z,11.09
2023-02-22T22:08:41.731Z,11.05
2023-02-22T22:11:10.174Z,11.01
2023-02-22T22:13:38.223Z,10.95
2023-02-22T22:16:10.595Z,10.97
2023-02-22T22:18:38.161Z,10.96
2023-02-22T22:21:16.246Z,10.90
2023-02-22T22:23:47.087Z,10.88
2023-02-22T22:26:17.003Z,10.81
2023-02-22T22:28:45.094Z,10.82
2023-02-22T22:31:12.547Z,10.76
2023-02-22T22:33:41.074Z,10.67
2023-02-22T22:36:09.389Z,10.73
2023-02-22T22:38:39.584Z,10.70
2023-02-22T22:41:07.720Z,10.70
2023-02-22T22:43:35.429Z,10.67
2023-02-22T22:46:03.544Z,10.66
2023-02-22T22:48:31.458Z,10.58
2023-02-22T22:51:02.659Z,10.55
2023-02-22T22:53:31.350Z,10.51
2023-02-22T22:56:05.390Z,10.48
2023-02-22T22:58:33.848Z,10.45
2023-02-22T23:01:05.928Z,10.49
2023-02-22T23:03:38.845Z,10.43
2023-02-22T23:06:06.034Z,10.43
2023-02-22T23:08:43.146Z,10.38
2023-02-22T23:11:10.911Z,10.36
2023-02-22T23:13:38.343Z,10.35
2023-02-22T23:16:12.055Z,10.30
2023-02-22T23:18:43.108Z,10.29
2023-02-22T23:21:10.706Z,10.25
2023-02-22T23:23:37.808Z,10.26
2023-02-22T23:26:15.999Z,10.22
2023-02-22T23:28:42.762Z,10.17
2023-02-22T23:31:10.497Z,10.17
2023-02-22T23:33:38.308Z,10.12
2023-02-22T23:36:06.319Z,10.10
2023-02-22T23:38:34.865Z,10.07
2023-02-22T23:41:03.050Z,10.03
2023-02-22T23:43:32.579Z,10.05
2023-02-22T23:46:04.006Z,9.96
2023-02-22T23:48:30.741Z,9.95
2023-02-22T23:51:00.672Z,9.92
2023-02-22T23:53:29.971Z,9.85
2023-02-22T23:55:57.070Z,9.87
2023-02-22T23:58:27.013Z,9.86
